Time;durP1;ratioP1;P1;durP2;ratioP2;P2;SDS_P1;SDS_P2;PMS_P1;PMS_P2;Temp;Humidity;BMP_temperature;BMP_pressure;BME280_temperature;BME280_humidity;BME280_pressure;Samples;Min_cycle;Max_cycle;Signal;HPM_P1;HPM_P2
2020/12/23 00:00:32;;;;;;;11.50;8.90;;;22.70;37.80;;;;;;5089852;28;20074;-64
2020/12/23 00:03:06;;;;;;;10.68;8.43;;;22.80;37.90;;;;;;5089498;28;20048;-64
2020/12/23 00:05:32;;;;;;;12.75;9.60;;;22.70;37.80;;;;;;5088620;28;20044;-65
2020/12/23 00:07:59;;;;;;;10.80;8.10;;;22.70;37.90;;;;;;5089687;28;20052;-64
2020/12/23 00:10:26;;;;;;;11.68;8.27;;;22.70;37.90;;;;;;5089174;28;20048;-67
2020/12/23 00:12:52;;;;;;;10.15;7.97;;;22.70;38.00;;;;;;5088417;28;20044;-64
2020/12/23 00:15:19;;;;;;;10.65;7.95;;;22.60;38.00;;;;;;5089169;28;20135;-64
2020/12/23 00:17:45;;;;;;;9.93;8.25;;;22.60;38.00;;;;;;5089382;28;20040;-64
2020/12/23 00:20:12;;;;;;;12.93;8.85;;;22.70;38.00;;;;;;5089282;28;20390;-64
2020/12/23 00:22:39;;;;;;;11.52;8.57;;;22.60;38.00;;;;;;5089326;28;20052;-64
2020/12/23 00:25:05;;;;;;;12.88;9.32;;;22.70;37.90;;;;;;5089169;28;20128;-64
2020/12/23 00:27:32;;;;;;;10.25;8.18;;;22.70;37.90;;;;;;5089374;28;20052;-64
2020/12/23 00:29:59;;;;;;;10.38;8.35;;;22.70;37.90;;;;;;5087899;28;20115;-64
2020/12/23 00:32:28;;;;;;;11.05;8.35;;;22.70;37.90;;;;;;5089101;28;20492;-64
2020/12/23 00:34:56;;;;;;;9.40;7.93;;;22.70;37.90;;;;;;5088883;28;20552;-64
2020/12/23 00:37:23;;;;;;;10.82;8.57;;;22.70;37.90;;;;;;5089409;28;20177;-64
2020/12/23 00:39:50;;;;;;;8.63;7.60;;;22.70;37.80;;;;;;5088845;28;20123;-64
2020/12/23 00:42:21;;;;;;;10.68;8.10;;;22.70;37.80;;;;;;5088999;28;20089;-64
2020/12/23 00:44:48;;;;;;;10.77;8.43;;;22.70;37.80;;;;;;5089148;28;20245;-64
2020/12/23 00:47:15;;;;;;;10.07;7.82;;;22.70;37.80;;;;;;5088609;28;20159;-64
2020/12/23 00:49:41;;;;;;;10.18;7.90;;;22.70;37.80;;;;;;5088604;28;20107;-64
2020/12/23 00:52:08;;;;;;;10.50;7.85;;;22.70;37.80;;;;;;5087281;28;20343;-64
2020/12/23 00:54:35;;;;;;;9.75;7.45;;;22.70;37.80;;;;;;5088777;28;20489;-64
2020/12/23 00:57:03;;;;;;;9.80;7.90;;;22.70;37.80;;;;;;5086508;28;20048;-64
2020/12/23 00:59:29;;;;;;;10.57;7.82;;;22.70;37.80;;;;;;5087586;28;20087;-63
2020/12/23 01:01:58;;;;;;;10.95;8.00;;;22.70;37.80;;;;;;5087937;28;20127;-64
2020/12/23 01:04:26;;;;;;;9.48;7.55;;;22.60;37.80;;;;;;5088181;28;20466;-67
2020/12/23 01:06:53;;;;;;;11.20;8.05;;;22.60;37.90;;;;;;5087805;28;20382;-64
2020/12/23 01:09:22;;;;;;;10.40;8.38;;;22.60;38.00;;;;;;5088188;28;20044;-64
2020/12/23 01:11:50;;;;;;;10.27;7.85;;;22.60;38.00;;;;;;5088514;28;20044;-64
2020/12/23 01:14:17;;;;;;;10.77;7.93;;;22.60;38.00;;;;;;5087919;28;20404;-64
2020/12/23 01:16:44;;;;;;;9.13;7.53;;;22.60;38.00;;;;;;5086659;28;20048;-64
2020/12/23 01:19:11;;;;;;;9.85;7.60;;;22.60;37.90;;;;;;5087981;28;20215;-64
2020/12/23 01:21:38;;;;;;;9.93;8.20;;;22.60;37.90;;;;;;5069578;28;20044;-64
2020/12/23 01:24:05;;;;;;;9.98;7.88;;;22.60;37.90;;;;;;5087735;28;20126;-64
2020/12/23 01:26:32;;;;;;;9.57;7.57;;;22.60;37.90;;;;;;5088107;28;20075;-64
2020/12/23 01:28:58;;;;;;;9.10;7.60;;;22.60;37.80;;;;;;5087785;28;20479;-64
2020/12/23 01:31:25;;;;;;;9.05;7.40;;;22.60;37.80;;;;;;5086620;28;20513;-64
2020/12/23 01:34:02;;;;;;;9.60;8.50;;;22.60;37.80;;;;;;5088004;28;20501;-64
2020/12/23 01:36:29;;;;;;;10.40;7.28;;;22.60;37.80;;;;;;5088066;28;20040;-64
2020/12/23 01:38:56;;;;;;;9.88;7.72;;;22.60;37.80;;;;;;5087818;28;20125;-64
2020/12/23 01:41:22;;;;;;;10.38;7.78;;;22.60;37.70;;;;;;5087606;28;20072;-64
2020/12/23 01:43:53;;;;;;;8.20;7.18;;;22.60;37.80;;;;;;5088211;28;20087;-64
2020/12/23 01:46:32;;;;;;;8.65;7.25;;;22.60;37.70;;;;;;5087605;28;20058;-63
2020/12/23 01:49:06;;;;;;;11.85;8.32;;;22.60;37.70;;;;;;5087924;28;20084;-64
2020/12/23 01:51:34;;;;;;;9.77;7.63;;;22.60;37.70;;;;;;5087436;28;20526;-64
2020/12/23 01:54:01;;;;;;;9.32;7.20;;;22.60;37.80;;;;;;5087610;28;20047;-64
2020/12/23 01:56:29;;;;;;;8.90;6.82;;;22.60;37.80;;;;;;5087507;28;20298;-64
2020/12/23 01:58:56;;;;;;;9.73;7.60;;;22.60;37.80;;;;;;5087018;28;20133;-66
2020/12/23 02:01:25;;;;;;;9.75;7.60;;;22.60;37.80;;;;;;5087959;28;20095;-63
2020/12/23 02:03:52;;;;;;;8.60;7.10;;;22.50;37.90;;;;;;5086915;28;20664;-64
2020/12/23 02:06:18;;;;;;;9.00;7.72;;;22.50;37.90;;;;;;5087437;28;20048;-64
2020/12/23 02:08:47;;;;;;;10.68;7.97;;;22.50;38.00;;;;;;5087193;28;20140;-64
2020/12/23 02:11:14;;;;;;;8.52;6.82;;;22.50;37.90;;;;;;5087516;28;20078;-64
2020/12/23 02:13:43;;;;;;;8.65;6.85;;;22.50;37.90;;;;;;5087079;28;20070;-64
2020/12/23 02:16:11;;;;;;;9.13;6.80;;;22.50;37.90;;;;;;5087465;28;20361;-63
2020/12/23 02:18:39;;;;;;;8.73;6.95;;;22.50;37.90;;;;;;5087400;28;20664;-64
2020/12/23 02:21:23;;;;;;;9.00;7.07;;;22.60;37.90;;;;;;5087365;28;20051;-64
2020/12/23 02:23:52;;;;;;;8.82;7.30;;;22.50;37.80;;;;;;5087459;28;20101;-64
2020/12/23 02:26:18;;;;;;;10.38;7.55;;;22.60;37.80;;;;;;5087333;28;20563;-64
2020/12/23 02:28:45;;;;;;;9.10;7.18;;;22.60;37.80;;;;;;5089296;28;20745;-64
2020/12/23 02:31:12;;;;;;;9.20;6.97;;;22.60;37.80;;;;;;5091461;28;20318;-64
2020/12/23 02:33:39;;;;;;;8.88;7.00;;;22.60;37.80;;;;;;5089657;28;20044;-64
2020/12/23 02:36:06;;;;;;;7.78;6.85;;;22.60;37.80;;;;;;5090177;28;20533;-64
2020/12/23 02:38:33;;;;;;;8.68;7.10;;;22.60;37.80;;;;;;5094340;28;20079;-64
2020/12/23 02:40:59;;;;;;;9.63;7.25;;;22.60;37.80;;;;;;5096211;28;20070;-65
2020/12/23 02:43:26;;;;;;;9.25;7.45;;;22.60;37.70;;;;;;5095730;28;20048;-64
2020/12/23 02:45:52;;;;;;;8.68;7.20;;;22.60;37.80;;;;;;5092906;28;20493;-64
2020/12/23 02:48:19;;;;;;;8.57;6.38;;;22.60;37.80;;;;;;5093931;28;20071;-64
2020/12/23 02:50:45;;;;;;;8.00;6.82;;;22.60;37.80;;;;;;5094902;28;20519;-64
2020/12/23 02:53:12;;;;;;;8.05;6.82;;;22.50;37.70;;;;;;5095290;28;20509;-64
2020/12/23 02:55:39;;;;;;;9.13;7.45;;;22.50;37.70;;;;;;5095307;28;20351;-64
2020/12/23 02:58:05;;;;;;;8.25;7.00;;;22.50;37.80;;;;;;5089466;28;20135;-64
2020/12/23 03:00:32;;;;;;;8.70;6.65;;;22.50;37.90;;;;;;5089700;28;20488;-64
2020/12/23 03:02:59;;;;;;;9.60;7.32;;;22.40;37.90;;;;;;5091152;28;20602;-64
2020/12/23 03:05:26;;;;;;;9.02;6.95;;;22.50;38.00;;;;;;5090783;28;20587;-64
2020/12/23 03:07:52;;;;;;;10.32;7.28;;;22.50;37.90;;;;;;5090763;28;20095;-64
2020/12/23 03:10:19;;;;;;;9.27;7.25;;;22.50;37.90;;;;;;5090074;28;20131;-64
2020/12/23 03:12:45;;;;;;;7.65;5.93;;;22.50;37.90;;;;;;5090945;28;20131;-64
2020/12/23 03:15:12;;;;;;;8.00;6.55;;;22.50;37.90;;;;;;5092081;28;20467;-64
2020/12/23 03:17:38;;;;;;;8.40;6.78;;;22.50;37.80;;;;;;5092307;28;20076;-64
2020/12/23 03:20:05;;;;;;;9.40;7.15;;;22.50;37.90;;;;;;5091907;28;20075;-64
2020/12/23 03:22:32;;;;;;;8.77;7.07;;;22.50;37.80;;;;;;5091507;28;20052;-64
2020/12/23 03:24:58;;;;;;;7.40;6.38;;;22.50;37.80;;;;;;5091692;28;20313;-64
2020/12/23 03:27:28;;;;;;;8.57;7.20;;;22.50;37.70;;;;;;5091079;28;20501;-64
2020/12/23 03:29:54;;;;;;;8.73;6.82;;;22.50;37.70;;;;;;5091590;28;20130;-64
2020/12/23 03:32:21;;;;;;;9.50;6.88;;;22.50;37.70;;;;;;5091582;28;20118;-64
2020/12/23 03:34:47;;;;;;;7.70;6.40;;;22.50;37.70;;;;;;5091449;28;20600;-64
2020/12/23 03:37:14;;;;;;;7.25;6.45;;;22.50;37.70;;;;;;5092079;28;20472;-64
2020/12/23 03:39:41;;;;;;;8.32;6.80;;;22.50;37.70;;;;;;5091098;28;20076;-64
2020/12/23 03:42:07;;;;;;;7.35;6.50;;;22.50;37.70;;;;;;5091454;28;20048;-64
2020/12/23 03:44:34;;;;;;;8.40;6.80;;;22.50;37.80;;;;;;5091923;28;20058;-64
2020/12/23 03:47:01;;;;;;;8.63;6.50;;;22.50;37.70;;;;;;5090708;28;20044;-67
2020/12/23 03:49:27;;;;;;;7.30;6.22;;;22.50;37.70;;;;;;5092127;28;20140;-64
2020/12/23 03:51:54;;;;;;;8.38;6.40;;;22.50;37.80;;;;;;5092048;28;20123;-64
2020/12/23 03:54:21;;;;;;;7.45;6.13;;;22.40;37.80;;;;;;5091676;28;20386;-64
2020/12/23 03:56:47;;;;;;;8.43;6.72;;;22.40;37.90;;;;;;5089521;28;20054;-64
2020/12/23 03:59:14;;;;;;;7.25;6.15;;;22.40;38.00;;;;;;5091063;28;20135;-64
2020/12/23 04:01:40;;;;;;;9.13;6.68;;;22.40;38.00;;;;;;5091763;28;20132;-64
2020/12/23 04:04:07;;;;;;;8.43;6.70;;;22.40;38.00;;;;;;5091422;28;20143;-64
2020/12/23 04:06:34;;;;;;;8.68;6.75;;;22.40;37.90;;;;;;5090729;28;20044;-64
2020/12/23 04:09:01;;;;;;;7.90;6.15;;;22.40;37.90;;;;;;5091814;28;20520;-64
2020/12/23 04:11:27;;;;;;;7.28;6.00;;;22.40;38.40;;;;;;5091164;28;20737;-64
2020/12/23 04:13:54;;;;;;;8.70;6.07;;;22.40;37.80;;;;;;5091503;28;20085;-64
2020/12/23 04:16:20;;;;;;;8.38;6.10;;;22.40;37.80;;;;;;5091378;28;20131;-64
2020/12/23 04:18:47;;;;;;;6.75;5.82;;;22.40;37.80;;;;;;5091333;28;20131;-64
2020/12/23 04:21:13;;;;;;;7.28;6.28;;;22.50;37.80;;;;;;5091092;28;20075;-64
2020/12/23 04:23:40;;;;;;;7.78;6.28;;;22.40;37.80;;;;;;5091279;28;20117;-64
2020/12/23 04:26:07;;;;;;;6.38;5.50;;;22.40;37.80;;;;;;5091126;28;20052;-64
2020/12/23 04:28:36;;;;;;;8.85;6.60;;;22.40;37.80;;;;;;5090533;28;20048;-64
2020/12/23 04:31:02;;;;;;;8.23;5.60;;;22.40;37.80;;;;;;5090765;28;20157;-64
2020/12/23 04:33:29;;;;;;;7.57;6.00;;;22.40;37.80;;;;;;5091271;28;20347;-64
2020/12/23 04:36:07;;;;;;;6.82;6.13;;;22.40;37.80;;;;;;5090705;28;20048;-64
2020/12/23 04:38:34;;;;;;;7.50;5.72;;;22.40;37.80;;;;;;5090075;28;20481;-64
2020/12/23 04:41:01;;;;;;;5.88;5.22;;;22.40;37.80;;;;;;5090534;28;20071;-64
2020/12/23 04:43:28;;;;;;;6.47;5.35;;;22.40;37.80;;;;;;5090254;28;20105;-64
2020/12/23 04:45:57;;;;;;;6.45;5.47;;;22.40;37.80;;;;;;5089511;28;20048;-64
2020/12/23 04:48:25;;;;;;;6.68;5.82;;;22.40;37.80;;;;;;5090275;28;20079;-64
2020/12/23 04:50:54;;;;;;;6.97;5.50;;;22.40;37.80;;;;;;5086298;28;20075;-64
2020/12/23 04:53:21;;;;;;;7.35;5.75;;;22.40;37.80;;;;;;5089742;28;20074;-64
2020/12/23 04:55:48;;;;;;;5.93;5.22;;;22.50;37.80;;;;;;5089494;28;20089;-64
2020/12/23 04:58:18;;;;;;;7.88;6.63;;;22.40;37.80;;;;;;5088866;28;20058;-64
2020/12/23 05:00:45;;;;;;;6.50;5.80;;;22.40;37.70;;;;;;5089012;28;20044;-64
2020/12/23 05:03:11;;;;;;;7.35;6.43;;;22.40;37.70;;;;;;5087583;28;20697;-64
2020/12/23 05:05:38;;;;;;;6.65;5.70;;;22.40;37.70;;;;;;5086845;28;20052;-64
2020/12/23 05:08:05;;;;;;;6.57;5.43;;;22.50;37.70;;;;;;5087474;28;20118;-64
2020/12/23 05:10:32;;;;;;;7.00;5.50;;;22.40;37.70;;;;;;5085086;28;20281;-64
2020/12/23 05:12:58;;;;;;;6.20;5.50;;;22.40;37.70;;;;;;5086614;28;20210;-65
2020/12/23 05:15:25;;;;;;;6.82;5.63;;;22.40;37.70;;;;;;5084921;28;20553;-64
2020/12/23 05:17:52;;;;;;;7.30;5.88;;;22.40;37.70;;;;;;5086140;28;20283;-64
2020/12/23 05:20:19;;;;;;;5.70;5.10;;;22.40;37.70;;;;;;5086934;28;20072;-64
2020/12/23 05:22:49;;;;;;;5.45;4.95;;;22.40;37.70;;;;;;5086288;28;20489;-64
2020/12/23 05:25:17;;;;;;;5.32;4.80;;;22.40;37.70;;;;;;5086546;28;20044;-64
2020/12/23 05:27:48;;;;;;;8.68;6.22;;;22.40;37.70;;;;;;5087145;28;20079;-64
2020/12/23 05:30:17;;;;;;;6.45;5.18;;;22.40;37.70;;;;;;5086638;28;20040;-64
2020/12/23 05:32:47;;;;;;;6.88;5.40;;;22.40;37.70;;;;;;5086432;28;20528;-64
2020/12/23 05:35:15;;;;;;;6.50;5.28;;;22.40;37.70;;;;;;5086624;28;20048;-64
2020/12/23 05:37:42;;;;;;;5.63;4.97;;;22.40;37.70;;;;;;5086874;28;20127;-64
2020/12/23 05:40:09;;;;;;;5.20;4.70;;;22.40;37.70;;;;;;5082379;28;20048;-64
2020/12/23 05:42:39;;;;;;;6.45;5.40;;;22.40;37.70;;;;;;5086216;28;20089;-64
2020/12/23 05:45:07;;;;;;;;;;;22.40;37.70;;;;;;5086873;28;20139;-64
2020/12/23 05:47:36;;;;;;;5.90;4.78;;;22.50;37.70;;;;;;5086443;28;20118;-64
2020/12/23 05:50:09;;;;;;;6.55;4.97;;;22.40;37.70;;;;;;5086007;28;20101;-64
2020/12/23 05:52:36;;;;;;;8.43;5.13;;;22.50;37.70;;;;;;5086294;28;20067;-64
2020/12/23 05:55:13;;;;;;;5.50;4.97;;;22.40;37.60;;;;;;5086964;28;20467;-65
2020/12/23 05:57:39;;;;;;;6.40;5.40;;;22.50;37.70;;;;;;5085693;28;20040;-64
2020/12/23 06:00:06;;;;;;;6.13;5.18;;;22.50;37.60;;;;;;5087253;28;20044;-64
2020/12/23 06:02:50;;;;;;;5.35;4.85;;;22.50;37.60;;;;;;5085542;28;20307;-64
2020/12/23 06:05:19;;;;;;;7.03;5.22;;;22.50;37.60;;;;;;5082560;28;20131;-64
2020/12/23 06:07:48;;;;;;;7.65;5.78;;;22.40;37.60;;;;;;5084242;28;20079;-64
2020/12/23 06:10:16;;;;;;;6.75;5.35;;;22.50;37.70;;;;;;5085480;28;20093;-64
2020/12/23 06:12:49;;;;;;;7.68;6.00;;;22.50;37.70;;;;;;5085856;28;20087;-64
2020/12/23 06:15:17;;;;;;;7.45;5.60;;;22.40;37.60;;;;;;5083625;28;20405;-64
2020/12/23 06:17:48;;;;;;;7.40;6.00;;;22.40;37.60;;;;;;5082312;28;20101;-64
2020/12/23 06:20:15;;;;;;;7.00;5.25;;;22.50;37.60;;;;;;5083417;28;20135;-64
2020/12/23 06:22:46;;;;;;;9.90;5.82;;;22.50;37.60;;;;;;5083678;28;20052;-66
2020/12/23 06:25:14;;;;;;;7.30;5.88;;;22.50;37.80;;;;;;5083003;28;20052;-66
2020/12/23 06:27:41;;;;;;;6.43;5.45;;;22.50;37.70;;;;;;5084962;28;20047;-66
2020/12/23 06:30:08;;;;;;;6.03;5.40;;;22.60;37.70;;;;;;5083410;28;20087;-65
2020/12/23 06:32:36;;;;;;;7.70;5.65;;;22.60;37.60;;;;;;5083595;28;20119;-68
2020/12/23 06:35:03;;;;;;;6.60;5.55;;;22.60;37.50;;;;;;5082403;28;20079;-65
2020/12/23 06:37:34;;;;;;;6.82;5.82;;;22.70;37.40;;;;;;5084862;28;20131;-65
2020/12/23 06:40:09;;;;;;;7.30;5.80;;;22.70;37.40;;;;;;5083787;28;20059;-65
2020/12/23 06:42:48;;;;;;;6.75;5.38;;;22.80;37.30;;;;;;5082561;28;20040;-65
2020/12/23 06:45:16;;;;;;;6.57;5.13;;;22.80;37.10;;;;;;5076180;28;20600;-66
2020/12/23 06:47:43;;;;;;;6.25;5.40;;;22.90;37.20;;;;;;5081921;28;20044;-67
2020/12/23 06:50:30;;;;;;;7.05;5.47;;;22.90;37.00;;;;;;5084341;28;20093;-67
2020/12/23 06:52:58;;;;;;;8.07;5.88;;;23.00;37.00;;;;;;5084158;28;20056;-64
2020/12/23 06:55:45;;;;;;;5.88;4.93;;;23.00;36.90;;;;;;5084384;28;20071;-64
2020/12/23 06:58:39;;;;;;;7.78;5.35;;;23.00;36.90;;;;;;5082295;28;20039;-68
2020/12/23 07:01:18;;;;;;;6.25;5.60;;;22.90;36.80;;;;;;5081179;28;20074;-64
2020/12/23 07:03:46;;;;;;;6.25;5.28;;;22.90;36.70;;;;;;5083369;28;20094;-67
2020/12/23 07:06:31;;;;;;;7.47;5.53;;;22.90;36.80;;;;;;5084845;28;20253;-64
2020/12/23 07:09:02;;;;;;;5.80;5.18;;;22.90;36.80;;;;;;5077410;28;20036;-65
2020/12/23 07:11:33;;;;;;;7.38;5.40;;;22.90;36.90;;;;;;5083507;28;20097;-65
2020/12/23 07:14:00;;;;;;;11.57;5.45;;;22.90;37.10;;;;;;5084707;28;20079;-65
2020/12/23 07:16:27;;;;;;;7.20;5.85;;;23.00;37.30;;;;;;5087460;28;20071;-64
2020/12/23 07:18:54;;;;;;;6.47;5.35;;;22.90;37.30;;;;;;5085686;28;20080;-65
2020/12/23 07:21:25;;;;;;;6.93;5.35;;;22.90;37.30;;;;;;5084497;28;20087;-65
2020/12/23 07:23:56;;;;;;;6.32;5.22;;;22.90;37.30;;;;;;5087396;28;20056;-65
2020/12/23 07:26:25;;;;;;;6.00;5.22;;;23.00;37.50;;;;;;5087197;28;20076;-64
2020/12/23 07:28:52;;;;;;;6.00;5.00;;;22.90;37.60;;;;;;5087382;28;20171;-65
2020/12/23 07:31:19;;;;;;;6.03;4.85;;;23.00;37.60;;;;;;5087368;28;20044;-65
2020/12/23 07:33:45;;;;;;;9.55;5.95;;;23.00;37.70;;;;;;5085251;28;20135;-67
2020/12/23 07:36:14;;;;;;;7.10;5.40;;;23.00;37.70;;;;;;5086862;28;20076;-64
2020/12/23 07:38:41;;;;;;;9.57;6.13;;;23.00;37.80;;;;;;5088085;28;20503;-65
2020/12/23 07:41:12;;;;;;;6.72;5.43;;;23.00;37.90;;;;;;5087879;28;20051;-69
2020/12/23 07:43:38;;;;;;;5.70;4.97;;;23.00;38.00;;;;;;5087132;28;20090;-65
2020/12/23 07:46:06;;;;;;;6.05;4.95;;;23.10;38.10;;;;;;5087068;28;20178;-65
2020/12/23 07:48:34;;;;;;;6.90;5.60;;;23.10;38.10;;;;;;5086064;28;20053;-66
2020/12/23 07:51:01;;;;;;;7.47;5.50;;;23.10;38.10;;;;;;5087047;28;20124;-66
2020/12/23 07:53:29;;;;;;;7.38;5.40;;;23.10;37.90;;;;;;5082860;28;20117;-66
2020/12/23 07:56:05;;;;;;;5.75;5.15;;;23.10;37.90;;;;;;5087282;28;20040;-65
2020/12/23 07:58:39;;;;;;;6.38;5.65;;;23.20;38.00;;;;;;5086232;28;20145;-68
2020/12/23 08:01:08;;;;;;;7.38;5.53;;;23.20;37.90;;;;;;5078981;28;20081;-64
2020/12/23 08:03:35;;;;;;;6.00;5.40;;;23.20;37.90;;;;;;5091180;28;20044;-64
2020/12/23 08:06:06;;;;;;;5.80;4.90;;;23.20;37.80;;;;;;5086393;28;20738;-65
2020/12/23 08:08:34;;;;;;;5.70;5.10;;;23.30;37.80;;;;;;5086139;28;20531;-68
2020/12/23 08:11:14;;;;;;;6.22;4.95;;;23.30;37.80;;;;;;5083481;28;20048;-66
2020/12/23 08:13:42;;;;;;;8.05;5.63;;;23.30;37.80;;;;;;5085788;28;20036;-66
2020/12/23 08:16:15;;;;;;;5.65;5.05;;;23.40;37.90;;;;;;5088064;28;20105;-66
2020/12/23 08:18:44;;;;;;;6.97;5.65;;;23.40;37.90;;;;;;5085705;28;20513;-68
2020/12/23 08:21:17;;;;;;;15.50;6.88;;;23.40;37.70;;;;;;5084838;28;20048;-63
2020/12/23 08:23:46;;;;;;;58.72;13.50;;;23.40;37.60;;;;;;5083343;28;20400;-66
2020/12/23 08:26:14;;;;;;;62.38;14.82;;;23.50;37.50;;;;;;5082621;28;20048;-66
2020/12/23 08:28:46;;;;;;;62.67;14.20;;;23.50;37.50;;;;;;5085768;28;20044;-62
2020/12/23 08:31:22;;;;;;;31.73;10.30;;;23.60;37.50;;;;;;5080725;28;20074;-63
2020/12/23 08:33:50;;;;;;;24.38;7.45;;;23.60;37.30;;;;;;5086199;28;20048;-62
2020/12/23 08:36:19;;;;;;;15.52;7.25;;;23.60;37.10;;;;;;5084186;28;20127;-63
2020/12/23 08:38:47;;;;;;;8.25;6.22;;;23.60;36.90;;;;;;5086290;28;20044;-62
2020/12/23 08:41:18;;;;;;;11.00;6.97;;;23.60;36.80;;;;;;5086338;28;20082;-63
2020/12/23 08:43:47;;;;;;;9.30;6.38;;;23.70;36.80;;;;;;5086840;28;20048;-62
2020/12/23 08:46:24;;;;;;;10.90;6.55;;;23.70;36.80;;;;;;5086517;28;20553;-63
2020/12/23 08:48:53;;;;;;;9.80;6.40;;;23.70;36.80;;;;;;5081065;28;20048;-62
2020/12/23 08:51:21;;;;;;;14.65;7.78;;;23.70;36.70;;;;;;5086941;28;20227;-62
2020/12/23 08:53:52;;;;;;;7.88;6.35;;;23.70;36.70;;;;;;5087344;28;20044;-66
2020/12/23 08:56:29;;;;;;;9.23;6.95;;;23.70;36.70;;;;;;5086401;28;20040;-62
2020/12/23 08:59:04;;;;;;;8.02;6.25;;;23.80;36.80;;;;;;5087004;28;20079;-63
2020/12/23 09:01:32;;;;;;;7.85;7.05;;;23.80;36.70;;;;;;5084039;28;20099;-62
2020/12/23 09:04:05;;;;;;;10.48;6.82;;;23.80;36.70;;;;;;5085768;28;20126;-63
2020/12/23 09:06:33;;;;;;;9.13;6.78;;;23.80;36.70;;;;;;5084140;28;20036;-62
2020/12/23 09:09:12;;;;;;;8.80;6.45;;;23.80;36.70;;;;;;5084553;28;20381;-63
2020/12/23 09:11:46;;;;;;;8.43;6.18;;;23.80;36.60;;;;;;5082531;28;20048;-66
2020/12/23 09:14:37;;;;;;;9.48;6.53;;;23.90;36.70;;;;;;5079630;28;20155;-66
2020/12/23 09:17:06;;;;;;;7.57;6.70;;;23.90;36.70;;;;;;5084450;28;20555;-66
2020/12/23 09:19:51;;;;;;;9.83;6.00;;;23.90;36.80;;;;;;5081985;28;20044;-64
2020/12/23 09:22:35;;;;;;;6.80;5.85;;;23.90;36.90;;;;;;5077781;28;20044;-65
2020/12/23 09:25:21;;;;;;;8.23;6.50;;;23.90;37.30;;;;;;5080995;28;20592;-65
2020/12/23 09:27:51;;;;;;;6.50;5.65;;;23.90;37.70;;;;;;5084666;28;20044;-66
2020/12/23 09:30:34;;;;;;;7.40;5.40;;;23.90;38.20;;;;;;5083729;28;20051;-66
2020/12/23 09:33:01;;;;;;;8.23;5.72;;;23.90;38.50;;;;;;5077742;28;20044;-65
2020/12/23 09:35:29;;;;;;;6.47;5.10;;;23.90;38.90;;;;;;5085721;28;20476;-64
2020/12/23 09:38:18;;;;;;;7.60;5.85;;;23.90;39.20;;;;;;5081225;28;20136;-64
2020/12/23 09:40:50;;;;;;;7.55;5.50;;;24.00;39.80;;;;;;5085275;28;20560;-64
2020/12/23 09:43:19;;;;;;;6.68;4.97;;;24.00;40.30;;;;;;5084917;28;20566;-64
2020/12/23 09:45:47;;;;;;;6.45;4.95;;;24.00;40.20;;;;;;5078323;28;20036;-64
2020/12/23 09:48:15;;;;;;;6.05;4.80;;;24.00;40.10;;;;;;5083861;28;20670;-67
2020/12/23 09:50:43;;;;;;;6.53;5.32;;;24.00;39.90;;;;;;5085521;28;20048;-67
2020/12/23 09:53:11;;;;;;;5.82;5.00;;;24.10;39.80;;;;;;5076302;28;20084;-64
2020/12/23 09:55:45;;;;;;;5.40;4.65;;;24.10;39.60;;;;;;5083835;28;20082;-64
2020/12/23 09:58:13;;;;;;;6.22;4.88;;;24.10;39.50;;;;;;5083537;28;20082;-67
2020/12/23 10:00:41;;;;;;;5.95;4.97;;;24.10;39.30;;;;;;5081858;28;20079;-64
2020/12/23 10:03:08;;;;;;;6.95;5.63;;;24.10;39.20;;;;;;5079657;28;20139;-67
2020/12/23 10:05:36;;;;;;;6.47;5.10;;;24.10;39.10;;;;;;5081308;28;20127;-64
2020/12/23 10:08:03;;;;;;;5.43;4.43;;;24.10;39.00;;;;;;5084188;28;20079;-64
2020/12/23 10:10:30;;;;;;;7.18;4.35;;;24.10;39.00;;;;;;5083273;28;20524;-67
2020/12/23 10:12:57;;;;;;;5.47;4.60;;;24.20;38.90;;;;;;5082925;28;20105;-66
2020/12/23 10:15:24;;;;;;;5.80;4.60;;;24.20;38.90;;;;;;5081538;28;20080;-64
2020/12/23 10:17:51;;;;;;;4.93;4.20;;;24.20;38.80;;;;;;5083917;28;20100;-63
2020/12/23 10:20:18;;;;;;;6.43;4.57;;;24.20;38.80;;;;;;5080255;28;20133;-63
2020/12/23 10:22:45;;;;;;;5.00;4.38;;;24.20;38.60;;;;;;5080283;28;20160;-66
2020/12/23 10:25:13;;;;;;;5.25;4.32;;;24.20;38.50;;;;;;5083810;28;20066;-63
2020/12/23 10:27:40;;;;;;;5.80;4.05;;;24.20;38.40;;;;;;5083292;28;20079;-64
2020/12/23 10:30:08;;;;;;;5.43;4.50;;;24.20;38.40;;;;;;5081994;28;20044;-64
2020/12/23 10:32:35;;;;;;;5.18;3.67;;;24.20;38.50;;;;;;5085075;28;20104;-64
2020/12/23 10:35:03;;;;;;;5.15;3.95;;;24.20;38.40;;;;;;5084826;28;20075;-64
2020/12/23 10:37:32;;;;;;;6.07;4.20;;;24.30;38.40;;;;;;5081622;28;20312;-66
2020/12/23 10:39:59;;;;;;;4.78;3.65;;;24.30;38.40;;;;;;5084108;28;20052;-63
2020/12/23 10:42:29;;;;;;;4.68;4.03;;;24.30;38.20;;;;;;5081052;28;20136;-63
2020/12/23 10:44:56;;;;;;;5.28;4.05;;;24.30;37.70;;;;;;5083671;28;20044;-66
2020/12/23 10:47:32;;;;;;;5.68;4.43;;;24.30;37.60;;;;;;5082221;28;20046;-64
2020/12/23 10:50:00;;;;;;;6.85;4.13;;;24.30;37.70;;;;;;5084060;28;20067;-63
2020/12/23 10:52:27;;;;;;;4.30;3.90;;;24.30;37.80;;;;;;5078081;28;20064;-64
2020/12/23 10:54:55;;;;;;;8.25;3.85;;;24.30;37.90;;;;;;5081284;28;20127;-63
2020/12/23 10:57:22;;;;;;;6.55;3.47;;;24.30;37.90;;;;;;5083837;28;20115;-67
2020/12/23 10:59:50;;;;;;;4.65;3.85;;;24.30;37.90;;;;;;5087021;28;20126;-64
2020/12/23 11:02:17;;;;;;;5.10;3.58;;;24.30;38.00;;;;;;5089493;28;20132;-66
2020/12/23 11:04:46;;;;;;;4.15;3.75;;;24.30;38.60;;;;;;5088871;28;20086;-64
2020/12/23 11:07:13;;;;;;;5.22;3.55;;;24.40;38.10;;;;;;5091275;28;20059;-64
2020/12/23 11:09:39;;;;;;;5.00;4.00;;;24.40;38.00;;;;;;5093891;28;20632;-64
2020/12/23 11:12:06;;;;;;;4.80;3.58;;;24.40;37.80;;;;;;5089366;28;20075;-64
2020/12/23 11:14:33;;;;;;;4.50;3.63;;;24.40;37.70;;;;;;5092144;28;20040;-64
2020/12/23 11:16:59;;;;;;;4.78;4.13;;;24.40;37.60;;;;;;5092072;28;20040;-64
2020/12/23 11:19:26;;;;;;;5.20;4.28;;;24.40;37.50;;;;;;5093743;28;20695;-64
2020/12/23 11:21:53;;;;;;;5.80;4.40;;;24.40;37.40;;;;;;5089156;28;20577;-64
2020/12/23 11:24:19;;;;;;;5.80;4.00;;;24.40;37.30;;;;;;5087382;28;20145;-64
2020/12/23 11:26:48;;;;;;;6.03;4.50;;;24.40;37.30;;;;;;5088764;28;20960;-64
2020/12/23 11:29:15;;;;;;;5.25;4.00;;;24.50;37.30;;;;;;5088226;28;20109;-64
2020/12/23 11:31:41;;;;;;;5.40;3.80;;;24.50;37.20;;;;;;5088244;28;20319;-64
2020/12/23 11:34:08;;;;;;;5.90;4.25;;;24.50;37.10;;;;;;5073870;28;20062;-64
2020/12/23 11:36:34;;;;;;;6.15;4.65;;;24.50;37.10;;;;;;5088395;28;20399;-64
2020/12/23 11:39:01;;;;;;;7.55;4.88;;;24.50;37.10;;;;;;5073103;28;20171;-64
2020/12/23 11:41:28;;;;;;;6.07;4.30;;;24.50;37.00;;;;;;5084952;28;20546;-64
2020/12/23 11:43:55;;;;;;;5.40;4.10;;;24.50;37.00;;;;;;5087639;28;20055;-64
2020/12/23 11:46:22;;;;;;;6.50;4.80;;;24.50;37.00;;;;;;5087724;28;20395;-64
2020/12/23 11:48:48;;;;;;;5.28;4.13;;;24.50;36.90;;;;;;5087300;28;20083;-64
2020/12/23 11:51:15;;;;;;;7.50;4.80;;;24.50;36.90;;;;;;5088945;28;20047;-64
2020/12/23 11:53:43;;;;;;;5.32;4.53;;;24.50;36.90;;;;;;5088022;28;20131;-64
2020/12/23 11:56:10;;;;;;;4.72;3.95;;;24.50;36.90;;;;;;5087180;28;20382;-64
2020/12/23 11:58:36;;;;;;;4.78;4.18;;;24.50;36.80;;;;;;5087565;28;20123;-64
2020/12/23 12:01:03;;;;;;;5.85;4.28;;;24.50;36.80;;;;;;5087901;28;20107;-64
2020/12/23 12:03:29;;;;;;;5.05;4.07;;;24.50;36.80;;;;;;5087863;28;20131;-65
2020/12/23 12:05:56;;;;;;;5.43;4.00;;;24.60;36.80;;;;;;5088136;28;20048;-64
2020/12/23 12:08:23;;;;;;;5.72;4.28;;;24.60;36.80;;;;;;5088744;28;20090;-64
2020/12/23 12:10:55;;;;;;;6.22;4.82;;;24.60;36.80;;;;;;5087127;28;20079;-64
2020/12/23 12:13:23;;;;;;;5.15;3.70;;;24.60;36.80;;;;;;5086811;28;20075;-64
2020/12/23 12:15:49;;;;;;;4.53;3.85;;;24.60;36.70;;;;;;5087268;28;20604;-64
2020/12/23 12:18:16;;;;;;;6.63;4.60;;;24.60;36.70;;;;;;5087388;28;20044;-64
2020/12/23 12:20:43;;;;;;;5.47;4.40;;;24.60;36.60;;;;;;5087430;28;20375;-64
2020/12/23 12:23:10;;;;;;;5.32;3.97;;;24.60;36.60;;;;;;5087218;28;20473;-64
2020/12/23 12:25:38;;;;;;;5.13;3.78;;;24.60;36.50;;;;;;5086383;28;20070;-64
2020/12/23 12:28:05;;;;;;;5.78;4.30;;;24.70;36.60;;;;;;5084599;28;20546;-64
2020/12/23 12:30:35;;;;;;;3.90;3.47;;;24.70;36.60;;;;;;5086505;28;20500;-64
2020/12/23 12:33:02;;;;;;;6.37;4.00;;;24.70;36.60;;;;;;5087672;28;20071;-64
2020/12/23 12:35:29;;;;;;;3.70;3.30;;;24.70;36.50;;;;;;5087191;28;20123;-64
2020/12/23 12:37:56;;;;;;;5.00;3.80;;;24.70;36.50;;;;;;5087020;28;20337;-64
2020/12/23 12:40:23;;;;;;;4.20;3.35;;;24.70;36.60;;;;;;5086328;28;20087;-63
2020/12/23 12:42:49;;;;;;;3.95;3.50;;;24.70;36.70;;;;;;5085445;28;20117;-63
2020/12/23 12:45:16;;;;;;;3.47;3.17;;;24.70;36.70;;;;;;5086619;28;20439;-64
2020/12/23 12:47:46;;;;;;;4.60;3.60;;;24.80;36.90;;;;;;5087482;28;20139;-64
2020/12/23 12:50:12;;;;;;;5.85;3.88;;;24.80;37.20;;;;;;5083061;28;20355;-64
2020/12/23 12:52:39;;;;;;;6.45;3.33;;;24.80;37.50;;;;;;5086761;28;20442;-64